Time;durP1;ratioP1;P1;durP2;ratioP2;P2;SDS_P1;SDS_P2;PMS_P1;PMS_P2;Temp;Humidity;BMP_temperature;BMP_pressure;BME280_temperature;BME280_humidity;BME280_pressure;Samples;Min_cycle;Max_cycle;Signal;HPM_P1;HPM_P2
2023/10/19 00:00:18;;;;;;;444.97;404.50;;;;;;;;;;5076565;28;20860;-59
2023/10/19 00:02:45;;;;;;;448.83;407.35;;;;;;;;;;5077445;28;20425;-59
2023/10/19 00:05:14;;;;;;;447.80;406.55;;;;;;;;;;5071911;28;20417;-57
2023/10/19 00:07:42;;;;;;;461.80;419.83;;;;;;;;;;5072492;28;20419;-59
2023/10/19 00:10:09;;;;;;;450.20;407.92;;;;;;;;;;5078465;28;20468;-59
2023/10/19 00:12:36;;;;;;;447.48;406.40;;;;;;;;;;5072595;28;20409;-59
2023/10/19 00:15:04;;;;;;;469.10;428.35;;;;;;;;;;5076982;28;20419;-60
2023/10/19 00:17:32;;;;;;;475.77;432.60;;;;;;;;;;5075284;28;20813;-58
2023/10/19 00:20:27;;;;;;;487.73;445.15;;;;;;;;;;5070874;28;20407;-59
2023/10/19 00:22:49;;;;;;;466.35;424.15;;;;;;;;;;5078079;28;20764;-59
2023/10/19 00:25:17;;;;;;;468.55;425.67;;;;;;;;;;5077524;28;20419;-59
2023/10/19 00:27:48;;;;;;;463.87;420.33;;;;;;;;;;5075268;28;20491;-59
2023/10/19 00:30:18;;;;;;;435.40;392.95;;;;;;;;;;5077533;28;20427;-59
2023/10/19 00:32:46;;;;;;;434.67;391.95;;;;;;;;;;5078398;28;20415;-58
2023/10/19 00:35:27;;;;;;;457.80;414.40;;;;;;;;;;5068616;28;20417;-59
2023/10/19 00:38:18;;;;;;;454.13;410.65;;;;;;;;;;5073209;28;20415;-59
2023/10/19 00:40:47;;;;;;;465.42;421.92;;;;;;;;;;5071830;28;20396;-60
2023/10/19 00:43:17;;;;;;;462.02;418.33;;;;;;;;;;5076420;28;20420;-60
2023/10/19 00:45:47;;;;;;;459.27;415.90;;;;;;;;;;5078106;28;20885;-60
2023/10/19 00:48:17;;;;;;;452.20;409.00;;;;;;;;;;5076771;28;20520;-59
2023/10/19 00:50:47;;;;;;;459.27;415.77;;;;;;;;;;5084563;28;20502;-60
2023/10/19 00:53:16;;;;;;;477.08;433.13;;;;;;;;;;5097809;28;20979;-60
2023/10/19 00:55:45;;;;;;;462.40;418.85;;;;;;;;;;5098330;28;20417;-60
2023/10/19 00:58:17;;;;;;;495.37;450.60;;;;;;;;;;5095248;28;20484;-58
2023/10/19 01:00:45;;;;;;;450.10;406.85;;;;;;;;;;5096313;28;20408;-59
2023/10/19 01:03:16;;;;;;;466.03;422.47;;;;;;;;;;5086088;28;20412;-60
2023/10/19 01:05:48;;;;;;;456.42;413.13;;;;;;;;;;5080598;28;20418;-59
2023/10/19 01:08:23;;;;;;;468.05;424.60;;;;;;;;;;5082779;28;20410;-59
2023/10/19 01:10:52;;;;;;;449.92;407.23;;;;;;;;;;5083082;28;20423;-60
2023/10/19 01:13:26;;;;;;;473.25;429.67;;;;;;;;;;5081454;28;20421;-60
2023/10/19 01:15:54;;;;;;;449.70;407.08;;;;;;;;;;5080295;28;20829;-60
2023/10/19 01:18:22;;;;;;;442.35;399.98;;;;;;;;;;5081477;28;20422;-59
2023/10/19 01:20:51;;;;;;;459.08;416.00;;;;;;;;;;5077670;28;20882;-60
2023/10/19 01:23:25;;;;;;;461.00;417.70;;;;;;;;;;5082629;28;20414;-60
2023/10/19 01:26:00;;;;;;;456.95;413.95;;;;;;;;;;5077775;28;20399;-60
2023/10/19 01:28:41;;;;;;;457.73;414.80;;;;;;;;;;5082054;28;20417;-59
2023/10/19 01:31:08;;;;;;;468.65;425.35;;;;;;;;;;5080534;28;20484;-60
2023/10/19 01:33:35;;;;;;;479.48;435.77;;;;;;;;;;5081026;28;20782;-59
2023/10/19 01:36:11;;;;;;;473.33;429.75;;;;;;;;;;5074222;28;20408;-59
2023/10/19 01:38:39;;;;;;;491.27;447.33;;;;;;;;;;5083662;28;20428;-59
2023/10/19 01:41:08;;;;;;;481.02;437.10;;;;;;;;;;5077210;28;20465;-57
2023/10/19 01:43:34;;;;;;;474.65;431.13;;;;;;;;;;5082217;28;20456;-58
2023/10/19 01:46:05;;;;;;;492.52;448.38;;;;;;;;;;5083208;28;20414;-58
2023/10/19 01:48:33;;;;;;;474.48;430.90;;;;;;;;;;5078389;28;20411;-58
2023/10/19 01:51:00;;;;;;;487.70;443.70;;;;;;;;;;5081496;28;20423;-59
2023/10/19 01:53:26;;;;;;;513.05;468.25;;;;;;;;;;5083570;28;20408;-59
2023/10/19 01:55:58;;;;;;;483.42;439.42;;;;;;;;;;5081124;28;20407;-59
2023/10/19 01:58:25;;;;;;;469.58;426.35;;;;;;;;;;5081023;28;20442;-58
2023/10/19 02:00:55;;;;;;;484.75;440.60;;;;;;;;;;5083706;28;20398;-59
2023/10/19 02:03:24;;;;;;;495.38;450.95;;;;;;;;;;5082139;28;20418;-58
2023/10/19 02:05:58;;;;;;;481.98;438.15;;;;;;;;;;5077583;28;20428;-58
2023/10/19 02:08:26;;;;;;;489.17;445.27;;;;;;;;;;5077567;28;20402;-59
2023/10/19 02:10:54;;;;;;;489.85;446.02;;;;;;;;;;5082577;28;20428;-59
2023/10/19 02:13:21;;;;;;;505.88;461.55;;;;;;;;;;5076185;28;20407;-55
2023/10/19 02:15:49;;;;;;;486.57;442.73;;;;;;;;;;5081802;28;20409;-59
2023/10/19 02:18:17;;;;;;;511.05;466.90;;;;;;;;;;5083020;28;20406;-58
2023/10/19 02:20:48;;;;;;;521.20;476.53;;;;;;;;;;5076752;28;20403;-59
2023/10/19 02:23:14;;;;;;;487.85;444.27;;;;;;;;;;5081301;28;20418;-59
2023/10/19 02:25:42;;;;;;;508.55;464.35;;;;;;;;;;5083385;28;20487;-59
2023/10/19 02:28:09;;;;;;;518.10;473.43;;;;;;;;;;5080699;28;20479;-59
2023/10/19 02:30:40;;;;;;;523.95;479.20;;;;;;;;;;5082711;28;20419;-58
2023/10/19 02:33:07;;;;;;;504.35;460.33;;;;;;;;;;5086163;28;20417;-59
2023/10/19 02:35:37;;;;;;;513.25;468.98;;;;;;;;;;5080620;28;20453;-59
2023/10/19 02:38:04;;;;;;;522.80;477.98;;;;;;;;;;5081876;28;20414;-59
2023/10/19 02:40:31;;;;;;;540.90;496.08;;;;;;;;;;5079531;28;20816;-58
2023/10/19 02:43:02;;;;;;;540.17;495.30;;;;;;;;;;5081753;28;20485;-59
2023/10/19 02:45:31;;;;;;;543.10;497.63;;;;;;;;;;5082559;28;20401;-59
2023/10/19 02:47:58;;;;;;;532.35;487.50;;;;;;;;;;5082075;28;20409;-58
2023/10/19 02:50:26;;;;;;;515.63;471.50;;;;;;;;;;5081035;28;20439;-58
2023/10/19 02:52:53;;;;;;;527.40;482.48;;;;;;;;;;5079411;28;20416;-58
2023/10/19 02:55:20;;;;;;;525.97;481.27;;;;;;;;;;5082189;28;20768;-59
2023/10/19 02:57:46;;;;;;;529.28;484.55;;;;;;;;;;5080962;28;20412;-59
2023/10/19 03:00:14;;;;;;;530.83;486.13;;;;;;;;;;5079643;28;20744;-59
2023/10/19 03:02:42;;;;;;;535.92;491.05;;;;;;;;;;5075837;28;20399;-58
2023/10/19 03:05:14;;;;;;;530.25;485.45;;;;;;;;;;5080408;28;20421;-58
2023/10/19 03:07:43;;;;;;;546.35;501.23;;;;;;;;;;5078335;28;20402;-58
2023/10/19 03:10:23;;;;;;;530.00;485.43;;;;;;;;;;5080240;28;20439;-59
2023/10/19 03:12:50;;;;;;;548.58;503.30;;;;;;;;;;5075983;28;20426;-59
2023/10/19 03:15:20;;;;;;;539.25;494.13;;;;;;;;;;5080464;28;20829;-58
2023/10/19 03:17:48;;;;;;;547.90;502.50;;;;;;;;;;5081757;28;20418;-58
2023/10/19 03:20:17;;;;;;;562.58;517.25;;;;;;;;;;5079647;28;20423;-59
2023/10/19 03:22:46;;;;;;;548.90;503.75;;;;;;;;;;5079811;28;20438;-59
2023/10/19 03:25:56;;;;;;;535.10;490.42;;;;;;;;;;5081777;28;20414;-59
2023/10/19 03:28:11;;;;;;;562.90;517.07;;;;;;;;;;5077466;28;20410;-59
2023/10/19 03:30:39;;;;;;;536.92;492.00;;;;;;;;;;5079210;28;20494;-59
2023/10/19 03:33:08;;;;;;;548.67;503.38;;;;;;;;;;5075671;28;20494;-59
2023/10/19 03:35:37;;;;;;;550.95;505.55;;;;;;;;;;5078011;28;20487;-59
2023/10/19 03:38:08;;;;;;;537.53;492.65;;;;;;;;;;5074823;28;20974;-59
2023/10/19 03:40:38;;;;;;;553.70;508.33;;;;;;;;;;5080508;28;20413;-59
2023/10/19 03:43:16;;;;;;;559.97;514.55;;;;;;;;;;5081713;28;20410;-59
2023/10/19 03:45:48;;;;;;;547.13;502.05;;;;;;;;;;5078342;28;20809;-58
2023/10/19 03:48:18;;;;;;;537.28;492.58;;;;;;;;;;5078665;28;20890;-58
2023/10/19 03:50:46;;;;;;;543.83;498.90;;;;;;;;;;5079962;28;20888;-58
2023/10/19 03:53:15;;;;;;;536.53;492.00;;;;;;;;;;5081586;28;20413;-59
2023/10/19 03:55:43;;;;;;;563.50;517.95;;;;;;;;;;5079164;28;20841;-59
2023/10/19 03:58:11;;;;;;;563.25;518.08;;;;;;;;;;5080009;28;20410;-59
2023/10/19 04:00:39;;;;;;;571.97;526.72;;;;;;;;;;5081484;28;20418;-59
2023/10/19 04:03:07;;;;;;;564.22;518.58;;;;;;;;;;5079104;28;20908;-59
2023/10/19 04:05:38;;;;;;;566.80;521.30;;;;;;;;;;5078250;28;20419;-59
2023/10/19 04:08:12;;;;;;;555.90;510.60;;;;;;;;;;5075568;28;20470;-57
2023/10/19 04:10:44;;;;;;;567.95;522.13;;;;;;;;;;5079455;28;20422;-58
2023/10/19 04:13:11;;;;;;;564.45;518.78;;;;;;;;;;5074716;28;20945;-58
2023/10/19 04:15:38;;;;;;;560.83;515.13;;;;;;;;;;5076789;28;20429;-59
2023/10/19 04:18:10;;;;;;;568.58;523.53;;;;;;;;;;5079237;28;20781;-59
2023/10/19 04:20:58;;;;;;;546.97;501.95;;;;;;;;;;5078195;28;20403;-58
2023/10/19 04:23:27;;;;;;;588.33;541.95;;;;;;;;;;5076126;28;20411;-59
2023/10/19 04:25:57;;;;;;;572.95;527.28;;;;;;;;;;5078867;28;20418;-59
2023/10/19 04:28:30;;;;;;;562.72;517.38;;;;;;;;;;5073703;28;20464;-57
2023/10/19 04:31:02;;;;;;;546.40;501.30;;;;;;;;;;5080229;28;20758;-59
2023/10/19 04:33:29;;;;;;;555.97;510.43;;;;;;;;;;5080933;28;20425;-59
2023/10/19 04:36:00;;;;;;;549.70;508.15;;;;;;;;;;5072893;28;20794;-59
2023/10/19 04:38:30;;;;;;;591.78;548.03;;;;;;;;;;5082129;28;20437;-59
2023/10/19 04:41:07;;;;;;;588.03;541.67;;;;;;;;;;5083212;28;20785;-59
2023/10/19 04:43:34;;;;;;;580.42;534.30;;;;;;;;;;5082289;28;20407;-59
2023/10/19 04:46:07;;;;;;;570.33;524.35;;;;;;;;;;5082702;28;20415;-59
2023/10/19 04:48:35;;;;;;;564.85;519.35;;;;;;;;;;5081757;28;20485;-58
2023/10/19 04:51:04;;;;;;;541.70;496.90;;;;;;;;;;5083913;28;20416;-59
2023/10/19 04:53:32;;;;;;;547.38;502.30;;;;;;;;;;5083801;28;20410;-59
2023/10/19 04:56:00;;;;;;;572.83;527.03;;;;;;;;;;5081838;28;20435;-58
2023/10/19 04:58:28;;;;;;;582.63;536.40;;;;;;;;;;5083953;28;20414;-59
2023/10/19 05:00:55;;;;;;;583.35;537.10;;;;;;;;;;5083786;28;20418;-59
2023/10/19 05:03:22;;;;;;;576.00;530.13;;;;;;;;;;5081758;28;20403;-58
2023/10/19 05:05:49;;;;;;;566.42;520.47;;;;;;;;;;5077798;28;20457;-59
2023/10/19 05:08:17;;;;;;;555.17;509.80;;;;;;;;;;5081633;28;20409;-59
2023/10/19 05:10:44;;;;;;;549.85;504.67;;;;;;;;;;5081613;28;20477;-59
2023/10/19 05:13:11;;;;;;;562.33;516.90;;;;;;;;;;5083858;28;20479;-59
2023/10/19 05:15:38;;;;;;;543.70;498.50;;;;;;;;;;5083641;28;20471;-59
2023/10/19 05:18:06;;;;;;;559.00;513.42;;;;;;;;;;5081398;28;20488;-59
2023/10/19 05:20:33;;;;;;;567.17;521.75;;;;;;;;;;5083686;28;20409;-59
2023/10/19 05:23:00;;;;;;;549.88;504.60;;;;;;;;;;5083691;28;20418;-59
2023/10/19 05:25:29;;;;;;;533.35;488.25;;;;;;;;;;5081335;28;20418;-59
2023/10/19 05:27:56;;;;;;;567.08;521.35;;;;;;;;;;5085042;28;20921;-58
2023/10/19 05:30:23;;;;;;;546.83;501.73;;;;;;;;;;5082245;28;20408;-59
2023/10/19 05:32:50;;;;;;;552.67;507.42;;;;;;;;;;5083589;28;20440;-58
2023/10/19 05:35:22;;;;;;;538.03;492.98;;;;;;;;;;5078958;28;20411;-59
2023/10/19 05:37:50;;;;;;;550.10;505.02;;;;;;;;;;5078866;28;20458;-58
2023/10/19 05:40:18;;;;;;;549.55;504.42;;;;;;;;;;5083863;28;20414;-59
2023/10/19 05:42:47;;;;;;;582.47;536.20;;;;;;;;;;5084245;28;20410;-58
2023/10/19 05:45:16;;;;;;;544.45;499.52;;;;;;;;;;5084520;28;20411;-56
2023/10/19 05:47:44;;;;;;;554.40;509.00;;;;;;;;;;5078553;28;20408;-59
2023/10/19 05:50:14;;;;;;;548.75;503.52;;;;;;;;;;5081592;28;20410;-59
2023/10/19 05:52:42;;;;;;;545.33;500.13;;;;;;;;;;5083650;28;20418;-59
2023/10/19 05:55:09;;;;;;;555.55;510.02;;;;;;;;;;5081396;28;20458;-59
2023/10/19 05:57:39;;;;;;;555.90;510.77;;;;;;;;;;5081151;28;20890;-59
2023/10/19 06:00:12;;;;;;;552.20;506.70;;;;;;;;;;5076550;28;20426;-59
2023/10/19 06:02:39;;;;;;;553.47;508.10;;;;;;;;;;5081249;28;20403;-59
2023/10/19 06:05:06;;;;;;;546.15;501.25;;;;;;;;;;5081150;28;20415;-59
2023/10/19 06:07:33;;;;;;;530.28;485.23;;;;;;;;;;5080067;28;20493;-59
2023/10/19 06:10:04;;;;;;;543.70;498.57;;;;;;;;;;5082065;28;20414;-59
2023/10/19 06:12:31;;;;;;;539.57;494.47;;;;;;;;;;5079812;28;20419;-60
2023/10/19 06:14:58;;;;;;;523.15;478.45;;;;;;;;;;5082436;28;20413;-60
2023/10/19 06:17:26;;;;;;;540.53;495.50;;;;;;;;;;5082186;28;20428;-59
2023/10/19 06:19:53;;;;;;;543.20;497.85;;;;;;;;;;5080086;28;20418;-60
2023/10/19 06:22:20;;;;;;;544.20;498.95;;;;;;;;;;5081963;28;20441;-60
2023/10/19 06:24:47;;;;;;;529.75;485.15;;;;;;;;;;5081966;28;20954;-60
2023/10/19 06:27:14;;;;;;;547.37;501.97;;;;;;;;;;5079534;28;20453;-60
2023/10/19 06:29:41;;;;;;;545.28;500.15;;;;;;;;;;5082153;28;20410;-59
2023/10/19 06:32:09;;;;;;;581.47;535.30;;;;;;;;;;5081500;28;20989;-59
2023/10/19 06:34:37;;;;;;;558.60;513.20;;;;;;;;;;5079831;28;20771;-59
2023/10/19 06:37:07;;;;;;;576.50;530.47;;;;;;;;;;5079151;28;20445;-60
2023/10/19 06:39:34;;;;;;;561.38;515.45;;;;;;;;;;5080093;28;20415;-59
2023/10/19 06:42:01;;;;;;;571.45;525.35;;;;;;;;;;5082577;28;20815;-59
2023/10/19 06:44:28;;;;;;;585.35;539.47;;;;;;;;;;5080550;28;20465;-59
2023/10/19 06:46:55;;;;;;;561.95;516.25;;;;;;;;;;5079981;28;20829;-57
2023/10/19 06:49:24;;;;;;;576.60;530.80;;;;;;;;;;5082356;28;20410;-59
2023/10/19 06:51:53;;;;;;;584.17;537.83;;;;;;;;;;5080285;28;20794;-59
2023/10/19 06:54:19;;;;;;;583.13;538.72;;;;;;;;;;5079668;28;20824;-58
2023/10/19 06:56:46;;;;;;;555.40;509.90;;;;;;;;;;5082291;28;20462;-59
2023/10/19 06:59:14;;;;;;;569.45;523.80;;;;;;;;;;5080284;28;20411;-60
2023/10/19 07:01:41;;;;;;;549.27;504.13;;;;;;;;;;5079185;28;20407;-60
2023/10/19 07:04:08;;;;;;;545.97;500.67;;;;;;;;;;5082206;28;20490;-59
2023/10/19 07:06:35;;;;;;;555.78;509.98;;;;;;;;;;5077402;28;20414;-59
2023/10/19 07:09:04;;;;;;;560.78;515.00;;;;;;;;;;5078316;28;20416;-60
2023/10/19 07:11:33;;;;;;;561.80;516.17;;;;;;;;;;5082058;28;20410;-60
2023/10/19 07:14:00;;;;;;;573.78;528.00;;;;;;;;;;5080121;28;20427;-60
2023/10/19 07:16:27;;;;;;;580.97;534.85;;;;;;;;;;5079393;28;20747;-59
2023/10/19 07:18:54;;;;;;;564.10;518.50;;;;;;;;;;5081986;28;20475;-60
2023/10/19 07:21:22;;;;;;;562.53;516.67;;;;;;;;;;5079941;28;20916;-60
2023/10/19 07:23:52;;;;;;;598.35;551.30;;;;;;;;;;5077994;28;20491;-61
2023/10/19 07:26:22;;;;;;;577.55;531.22;;;;;;;;;;5071611;28;20777;-60
2023/10/19 07:28:50;;;;;;;610.90;563.72;;;;;;;;;;5073198;28;20936;-61
2023/10/19 07:31:17;;;;;;;593.10;546.00;;;;;;;;;;5073282;28;20420;-61
2023/10/19 07:33:46;;;;;;;602.25;554.97;;;;;;;;;;5075390;28;20422;-61
2023/10/19 07:36:14;;;;;;;595.38;548.72;;;;;;;;;;5077303;28;20409;-61
2023/10/19 07:38:42;;;;;;;599.03;552.33;;;;;;;;;;5077491;28;20490;-61
2023/10/19 07:41:09;;;;;;;584.63;538.17;;;;;;;;;;5077460;28;20427;-61
2023/10/19 07:43:38;;;;;;;592.92;546.38;;;;;;;;;;5084576;28;20998;-61
2023/10/19 07:46:08;;;;;;;623.88;575.90;;;;;;;;;;5077614;28;20834;-61
2023/10/19 07:48:35;;;;;;;618.42;570.97;;;;;;;;;;5079915;28;20511;-62
2023/10/19 07:51:02;;;;;;;604.37;557.37;;;;;;;;;;5076844;28;20920;-61
2023/10/19 07:53:30;;;;;;;608.35;561.03;;;;;;;;;;5080085;28;20459;-61
2023/10/19 07:55:57;;;;;;;607.70;561.05;;;;;;;;;;5079303;28;20430;-60
2023/10/19 07:58:24;;;;;;;609.83;562.92;;;;;;;;;;5078559;28;20773;-61
2023/10/19 08:00:53;;;;;;;614.63;568.20;;;;;;;;;;5080568;28;20439;-61
2023/10/19 08:03:21;;;;;;;621.03;573.45;;;;;;;;;;5079539;28;20760;-60
2023/10/19 08:05:48;;;;;;;622.95;574.88;;;;;;;;;;5075664;28;20447;-60
2023/10/19 08:08:15;;;;;;;604.55;557.30;;;;;;;;;;5071557;28;20465;-60
2023/10/19 08:10:42;;;;;;;618.63;571.03;;;;;;;;;;5079724;28;20405;-63
2023/10/19 08:13:12;;;;;;;637.60;589.30;;;;;;;;;;5083087;28;20422;-61
2023/10/19 08:15:40;;;;;;;632.03;584.28;;;;;;;;;;5083867;28;20493;-63
2023/10/19 08:18:12;;;;;;;629.63;581.97;;;;;;;;;;5080962;28;20406;-62
2023/10/19 08:20:39;;;;;;;644.08;595.88;;;;;;;;;;5081947;28;20412;-62
2023/10/19 08:23:06;;;;;;;618.53;571.13;;;;;;;;;;5078230;28;20446;-61
2023/10/19 08:25:33;;;;;;;607.95;561.10;;;;;;;;;;5081463;28;20433;-61
2023/10/19 08:28:01;;;;;;;611.67;564.35;;;;;;;;;;5081529;28;20777;-62
2023/10/19 08:30:28;;;;;;;602.55;556.42;;;;;;;;;;5084401;28;20413;-63
2023/10/19 08:32:57;;;;;;;607.47;561.10;;;;;;;;;;5084006;28;20428;-63
2023/10/19 08:35:26;;;;;;;605.25;558.38;;;;;;;;;;5077820;28;20498;-65
2023/10/19 08:37:53;;;;;;;614.63;567.72;;;;;;;;;;5078102;28;20956;-62
2023/10/19 08:40:21;;;;;;;601.38;555.20;;;;;;;;;;5084178;28;20406;-62
2023/10/19 08:42:49;;;;;;;593.83;547.72;;;;;;;;;;5078115;28;20403;-62
2023/10/19 08:45:16;;;;;;;614.35;567.13;;;;;;;;;;5082994;28;20512;-62
2023/10/19 08:47:47;;;;;;;642.20;594.40;;;;;;;;;;5084181;28;20787;-62
2023/10/19 08:50:15;;;;;;;642.22;595.05;;;;;;;;;;5078540;28;20411;-62
2023/10/19 08:52:44;;;;;;;648.03;600.42;;;;;;;;;;5082361;28;20453;-62
2023/10/19 08:55:12;;;;;;;641.20;593.60;;;;;;;;;;5083606;28;20413;-63
2023/10/19 08:57:40;;;;;;;658.50;610.25;;;;;;;;;;5082076;28;20407;-64
2023/10/19 09:00:09;;;;;;;686.67;637.30;;;;;;;;;;5082321;28;20409;-60
2023/10/19 09:02:36;;;;;;;684.95;635.92;;;;;;;;;;5084543;28;20522;-61
2023/10/19 09:05:07;;;;;;;683.15;634.13;;;;;;;;;;5078416;28;20881;-61
2023/10/19 09:07:34;;;;;;;708.40;658.83;;;;;;;;;;5079478;28;20955;-61
2023/10/19 09:10:05;;;;;;;672.83;624.35;;;;;;;;;;5081160;28;20407;-61
2023/10/19 09:12:33;;;;;;;677.17;627.80;;;;;;;;;;5088342;28;20411;-61
2023/10/19 09:15:00;;;;;;;670.70;622.08;;;;;;;;;;5084601;28;20889;-61
2023/10/19 09:17:31;;;;;;;686.15;637.05;;;;;;;;;;5081615;28;20405;-62
2023/10/19 09:20:02;;;;;;;709.63;659.65;;;;;;;;;;5080941;28;20411;-62
2023/10/19 09:22:36;;;;;;;679.63;630.92;;;;;;;;;;5077757;28;20418;-63
2023/10/19 09:25:07;;;;;;;681.42;632.63;;;;;;;;;;5080815;28;20931;-62
2023/10/19 09:27:34;;;;;;;697.90;648.38;;;;;;;;;;5078240;28;20426;-63
2023/10/19 09:30:01;;;;;;;673.95;625.25;;;;;;;;;;5081996;28;20399;-62
2023/10/19 09:32:32;;;;;;;691.60;642.83;;;;;;;;;;5083377;28;20806;-62
2023/10/19 09:34:59;;;;;;;656.35;608.40;;;;;;;;;;5079112;28;20772;-62
2023/10/19 09:37:27;;;;;;;662.28;614.10;;;;;;;;;;5079072;28;20413;-62
2023/10/19 09:39:53;;;;;;;692.83;643.53;;;;;;;;;;5080337;28;20412;-62
2023/10/19 09:42:22;;;;;;;674.85;626.33;;;;;;;;;;5083032;28;20459;-63
2023/10/19 09:44:54;;;;;;;658.22;610.17;;;;;;;;;;5082371;28;20456;-61
2023/10/19 09:47:24;;;;;;;660.10;611.88;;;;;;;;;;5077104;28;20425;-62
2023/10/19 09:49:51;;;;;;;669.95;621.65;;;;;;;;;;5081654;28;20453;-64
2023/10/19 09:52:19;;;;;;;680.55;631.63;;;;;;;;;;5079615;28;20402;-63
2023/10/19 09:54:51;;;;;;;666.55;618.45;;;;;;;;;;5082573;28;20492;-63
2023/10/19 09:57:19;;;;;;;686.67;637.65;;;;;;;;;;5082800;28;20755;-65
2023/10/19 09:59:49;;;;;;;719.45;669.35;;;;;;;;;;5080054;28;20519;-63
2023/10/19 10:02:18;;;;;;;712.80;663.22;;;;;;;;;;5081572;28;20492;-63
2023/10/19 10:04:46;;;;;;;703.88;654.33;;;;;;;;;;5080418;28;20515;-62
2023/10/19 10:07:13;;;;;;;693.10;644.05;;;;;;;;;;5077249;28;20933;-62
2023/10/19 10:09:43;;;;;;;711.20;661.33;;;;;;;;;;5078427;28;20415;-62
2023/10/19 10:12:17;;;;;;;698.75;649.45;;;;;;;;;;5076359;28;20422;-63
2023/10/19 10:16:28;;;;;;;5.35;1.95;;;;;;;;;;5083162;27;20376;-61
2023/10/19 10:18:58;;;;;;;7.45;2.05;;;;;;;;;;5085622;27;20423;-62
2023/10/19 10:21:26;;;;;;;8.82;1.95;;;;;;;;;;5089128;28;20478;-62
2023/10/19 10:23:53;;;;;;;5.35;1.75;;;;;;;;;;5088127;28;20460;-63
2023/10/19 10:26:24;;;;;;;7.75;1.83;;;;;;;;;;5087353;28;20418;-64
2023/10/19 10:29:09;;;;;;;8.07;2.55;;;;;;;;;;5083780;28;20834;-63
2023/10/19 10:31:42;;;;;;;5.30;1.80;;;;;;;;;;5083454;28;20433;-63
2023/10/19 10:34:10;;;;;;;6.38;2.13;;;;;;;;;;5087140;28;20845;-63
2023/10/19 10:36:53;;;;;;;6.47;1.80;;;;;;;;;;5082462;28;20767;-64
2023/10/19 10:39:24;;;;;;;6.68;1.80;;;;;;;;;;5085902;28;20407;-63
2023/10/19 10:41:56;;;;;;;6.20;2.00;;;;;;;;;;5087004;28;20909;-64
2023/10/19 10:44:37;;;;;;;5.70;1.90;;;;;;;;;;5080401;28;91046;-65
2023/10/19 10:47:08;;;;;;;6.68;1.80;;;;;;;;;;5074463;28;20441;-66
2023/10/19 10:49:35;;;;;;;5.38;1.75;;;;;;;;;;5077369;28;20419;-65
2023/10/19 10:52:02;;;;;;;4.38;1.60;;;;;;;;;;5074504;28;20418;-65
2023/10/19 10:54:29;;;;;;;5.63;1.60;;;;;;;;;;5074503;28;20432;-66
2023/10/19 10:56:56;;;;;;;9.52;2.05;;;;;;;;;;5075282;28;20458;-65
2023/10/19 10:59:23;;;;;;;4.53;1.65;;;;;;;;;;5079848;28;20407;-63
2023/10/19 11:01:50;;;;;;;5.63;1.40;;;;;;;;;;5075717;28;20413;-63
2023/10/19 11:04:18;;;;;;;6.40;2.03;;;;;;;;;;5078814;28;20896;-62
2023/10/19 11:06:51;;;;;;;5.65;1.70;;;;;;;;;;5072300;28;20412;-61
2023/10/19 11:09:22;;;;;;;7.93;2.17;;;;;;;;;;5080993;28;20903;-61
2023/10/19 11:11:51;;;;;;;7.75;1.90;;;;;;;;;;5078040;28;20411;-62
2023/10/19 11:14:19;;;;;;;9.82;1.90;;;;;;;;;;5080272;28;20490;-62
2023/10/19 11:16:46;;;;;;;5.60;1.60;;;;;;;;;;5089681;28;20415;-62
2023/10/19 11:19:12;;;;;;;7.78;2.00;;;;;;;;;;5095311;28;20413;-62
2023/10/19 11:21:52;;;;;;;7.85;1.83;;;;;;;;;;5100997;28;20441;-58
2023/10/19 11:24:26;;;;;;;7.30;1.67;;;;;;;;;;5096706;28;20407;-63
2023/10/19 11:26:54;;;;;;;8.63;2.00;;;;;;;;;;5088021;28;20414;-61
2023/10/19 11:29:22;;;;;;;7.40;1.80;;;;;;;;;;5083250;28;20453;-61
2023/10/19 11:31:58;;;;;;;7.75;2.03;;;;;;;;;;5084595;28;20420;-57
2023/10/19 11:34:25;;;;;;;8.67;2.03;;;;;;;;;;5082989;28;20503;-58
2023/10/19 11:36:56;;;;;;;8.45;3.08;;;;;;;;;;5077285;28;20413;-57
2023/10/19 11:39:24;;;;;;;9.30;3.75;;;;;;;;;;5081644;28;20499;-59
2023/10/19 11:41:51;;;;;;;8.68;1.70;;;;;;;;;;5082303;28;20406;-60
2023/10/19 11:44:19;;;;;;;6.57;1.98;;;;;;;;;;5084434;28;20412;-62
2023/10/19 11:46:46;;;;;;;7.45;1.70;;;;;;;;;;5081446;28;20419;-61
2023/10/19 11:49:13;;;;;;;7.60;1.85;;;;;;;;;;5082633;28;20413;-58
2023/10/19 11:51:41;;;;;;;6.85;2.08;;;;;;;;;;5084125;28;20402;-61
2023/10/19 11:54:10;;;;;;;6.70;1.90;;;;;;;;;;5081697;28;20481;-61
2023/10/19 11:56:37;;;;;;;5.75;1.83;;;;;;;;;;5082031;28;20433;-61
2023/10/19 11:59:04;;;;;;;6.50;1.90;;;;;;;;;;5084164;28;20459;-62
2023/10/19 12:01:31;;;;;;;7.47;2.10;;;;;;;;;;5081611;28;20469;-62
2023/10/19 12:03:58;;;;;;;5.53;1.90;;;;;;;;;;5082106;28;20876;-61
2023/10/19 12:06:25;;;;;;;9.45;2.65;;;;;;;;;;5083407;28;20473;-61
2023/10/19 12:08:52;;;;;;;9.18;2.70;;;;;;;;;;5079939;28;20476;-59
2023/10/19 12:11:21;;;;;;;7.15;2.28;;;;;;;;;;5082458;28;20884;-61
2023/10/19 12:13:49;;;;;;;6.10;2.20;;;;;;;;;;5080719;28;20757;-61
2023/10/19 12:16:16;;;;;;;5.82;1.95;;;;;;;;;;5077037;28;20440;-58
2023/10/19 12:18:43;;;;;;;7.97;2.28;;;;;;;;;;5077986;28;20851;-61
2023/10/19 12:21:12;;;;;;;6.78;2.05;;;;;;;;;;5076237;28;20457;-61
2023/10/19 12:23:40;;;;;;;7.60;2.20;;;;;;;;;;5074146;28;20407;-61
2023/10/19 12:26:11;;;;;;;6.38;1.90;;;;;;;;;;5078574;28;20443;-58
2023/10/19 12:28:39;;;;;;;7.22;2.10;;;;;;;;;;5074346;28;20760;-61
2023/10/19 12:31:08;;;;;;;6.57;2.08;;;;;;;;;;5078160;28;20911;-61
2023/10/19 12:33:35;;;;;;;6.13;1.80;;;;;;;;;;5075641;28;20443;-62
2023/10/19 12:36:21;;;;;;;7.88;1.88;;;;;;;;;;5083119;28;20426;-60
2023/10/19 12:38:49;;;;;;;7.50;2.15;;;;;;;;;;5081192;28;20549;-55
2023/10/19 12:41:17;;;;;;;8.90;1.92;;;;;;;;;;5083864;28;20417;-58
2023/10/19 12:43:46;;;;;;;7.95;2.00;;;;;;;;;;5083534;28;20424;-58
2023/10/19 12:46:13;;;;;;;6.53;1.90;;;;;;;;;;5080207;28;20404;-62
2023/10/19 12:48:40;;;;;;;6.57;2.03;;;;;;;;;;5075261;28;20411;-62
2023/10/19 12:51:08;;;;;;;7.53;1.90;;;;;;;;;;5079100;28;20423;-67
2023/10/19 12:53:37;;;;;;;8.13;2.13;;;;;;;;;;5081251;28;20414;-67
2023/10/19 12:56:04;;;;;;;7.43;2.35;;;;;;;;;;5082559;28;20432;-65
2023/10/19 12:58:32;;;;;;;6.88;2.00;;;;;;;;;;5076830;28;20781;-66
2023/10/19 13:01:00;;;;;;;6.55;1.70;;;;;;;;;;5079452;28;20425;-67
2023/10/19 13:03:31;;;;;;;5.40;2.05;;;;;;;;;;5083847;28;20438;-65
2023/10/19 13:05:58;;;;;;;9.57;2.10;;;;;;;;;;5084025;28;20502;-64
2023/10/19 13:08:27;;;;;;;9.00;2.42;;;;;;;;;;5085057;28;20811;-66
2023/10/19 13:10:54;;;;;;;7.20;2.00;;;;;;;;;;5082987;28;20414;-66
2023/10/19 13:13:23;;;;;;;7.15;2.10;;;;;;;;;;5084422;28;20414;-66
2023/10/19 13:15:51;;;;;;;7.25;1.90;;;;;;;;;;5080573;28;20869;-64
2023/10/19 13:18:21;;;;;;;9.95;2.25;;;;;;;;;;5082436;28;20413;-64
2023/10/19 13:20:49;;;;;;;8.82;2.47;;;;;;;;;;5084706;28;20878;-65
2023/10/19 13:23:16;;;;;;;8.30;2.00;;;;;;;;;;5080100;28;20418;-64
2023/10/19 13:25:49;;;;;;;8.00;2.58;;;;;;;;;;5082406;28;20394;-65
2023/10/19 13:28:17;;;;;;;7.03;2.03;;;;;;;;;;5079286;28;20769;-64
2023/10/19 13:30:45;;;;;;;5.78;2.30;;;;;;;;;;5086559;28;20408;-66
2023/10/19 13:33:13;;;;;;;7.97;2.00;;;;;;;;;;5081963;28;20406;-67
2023/10/19 13:35:42;;;;;;;7.22;2.40;;;;;;;;;;5081733;28;20828;-66
2023/10/19 13:38:09;;;;;;;8.73;2.30;;;;;;;;;;5076559;28;20414;-63
2023/10/19 13:40:37;;;;;;;9.63;2.30;;;;;;;;;;5078813;28;20813;-64
2023/10/19 13:43:06;;;;;;;10.40;2.35;;;;;;;;;;5079916;28;20841;-63
2023/10/19 13:45:33;;;;;;;6.18;2.15;;;;;;;;;;5081788;28;20421;-64
2023/10/19 13:48:00;;;;;;;8.30;2.40;;;;;;;;;;5079462;28;20836;-64
2023/10/19 13:50:29;;;;;;;7.18;2.33;;;;;;;;;;5079232;28;20412;-63
2023/10/19 13:53:04;;;;;;;7.30;2.55;;;;;;;;;;5083011;28;20497;-67
2023/10/19 13:55:33;;;;;;;4.88;2.05;;;;;;;;;;5080545;28;20535;-63
2023/10/19 13:58:01;;;;;;;11.50;2.45;;;;;;;;;;5081481;28;20462;-63
2023/10/19 14:00:35;;;;;;;8.73;2.42;;;;;;;;;;5075960;28;20897;-64
2023/10/19 14:03:04;;;;;;;7.15;2.33;;;;;;;;;;5081439;28;20496;-64
2023/10/19 14:05:31;;;;;;;7.13;2.67;;;;;;;;;;5079539;28;20411;-63
2023/10/19 14:07:58;;;;;;;7.05;2.55;;;;;;;;;;5075361;28;20417;-65
2023/10/19 14:10:27;;;;;;;7.53;3.03;;;;;;;;;;5077820;28;20464;-64
2023/10/19 14:12:54;;;;;;;10.73;3.38;;;;;;;;;;5080222;28;20467;-66
2023/10/19 14:15:21;;;;;;;8.20;2.88;;;;;;;;;;5080703;28;20492;-64
2023/10/19 14:17:49;;;;;;;9.32;3.05;;;;;;;;;;5078339;28;20418;-66